Anedigmi — 2BHF3 — position and weather

sailwx.info

Track history (hours):
 
Tides and Currents Weather Stations Pressure Air Temp Water Temp Dewpoint Dewpoint Depression Visibility Wind Speed Wind Dir Waves Ship Positions

Anedigmi

Last reported at 2014-Aug-21 10:33 UTC. Time now 2014-Aug-22 13:51 UTC.
Position N 43°40' E 007°21'.

Length 50 m; draft 3.1 m.

Type: Pleasure craft. MMSI: 235066107.

Date/timePositionNaut miles runAvg speedWind from/ knotsBaromVisibWave heightAir tempDewpointWater temp
2014-Aug-21 10:33N 43°40' E 007°21'1313.1
2014-Aug-21 09:33N 43°32' E 007°07'1313.0
2014-Aug-21 08:33N 43°23' E 006°53'1313.1
2014-Aug-21 07:33N 43°16' E 006°38'0 0.0
2014-Aug-20 12:20N 43°16' E 006°38'3 4.0
2014-Aug-20 11:29N 43°14' E 006°42'1 1.6
2014-Aug-20 10:33N 43°13' E 006°40'1111.4
2014-Aug-20 09:34N 43°21' E 006°51'1313.2
2014-Aug-20 08:33N 43°32' E 007°01'1 0.0
2014-Aug-19 18:09N 43°32' E 007°02'0 0.0
2014-Aug-19 14:21N 43°32' E 007°02'0 0.0
2014-Aug-19 13:21N 43°32' E 007°02'0 0.0
2014-Aug-19 02:15N 43°32' E 007°02'0 0.0
2014-Aug-18 18:24N 43°32' E 007°02'2 1.9
2014-Aug-18 17:34N 43°31' E 007°04'0 0.1
2014-Aug-18 16:28N 43°32' E 007°04'0 0.0
2014-Aug-18 15:28N 43°32' E 007°04'0 0.0
2014-Aug-18 14:28N 43°32' E 007°04'0 0.0
2014-Aug-18 13:26N 43°31' E 007°04'  
2014-Aug-12 15:12N 42°17' E 008°33'3 1.5
2014-Aug-12 13:24N 42°20' E 008°34'3913.6
2014-Aug-12 10:33N 42°42' E 007°52'1813.5
2014-Aug-12 09:14N 42°52' E 007°32'1013.8
2014-Aug-12 08:33N 42°58' E 007°21'1413.6
2014-Aug-12 07:33N 43°05' E 007°06'7 6.6
2014-Aug-12 06:33N 43°09' E 006°58'1414.1
2014-Aug-12 05:33N 43°17' E 006°42'3 0.2
2014-Aug-11 14:14N 43°16' E 006°38'1 1.1
2014-Aug-11 13:33N 43°16' E 006°37'0 0.0
2014-Aug-11 12:28N 43°16' E 006°37'0 0.0
2014-Aug-11 11:22N 43°16' E 006°37'  
Track history (hours):
 
Tides and Currents Weather Stations Pressure Air Temp Water Temp Dewpoint Dewpoint Depression Visibility Wind Speed Wind Dir Waves Ship Positions

Anedigmi

Last reported at 2014-Aug-21 10:33 UTC. Time now 2014-Aug-22 13:51 UTC.
Position N 43°40' E 007°21'.

Length 50 m; draft 3.1 m.

Type: Pleasure craft. MMSI: 235066107.

Date/timePositionNaut miles runAvg speedWind from/ knotsBaromVisibWave heightAir tempDewpointWater temp
2014-Aug-21 10:33N 43°40' E 007°21'1313.1
2014-Aug-21 09:33N 43°32' E 007°07'1313.0
2014-Aug-21 08:33N 43°23' E 006°53'1313.1
2014-Aug-21 07:33N 43°16' E 006°38'0 0.0
2014-Aug-20 12:20N 43°16' E 006°38'3 4.0
2014-Aug-20 11:29N 43°14' E 006°42'1 1.6
2014-Aug-20 10:33N 43°13' E 006°40'1111.4
2014-Aug-20 09:34N 43°21' E 006°51'1313.2
2014-Aug-20 08:33N 43°32' E 007°01'1 0.0
2014-Aug-19 18:09N 43°32' E 007°02'0 0.0
2014-Aug-19 14:21N 43°32' E 007°02'0 0.0
2014-Aug-19 13:21N 43°32' E 007°02'0 0.0
2014-Aug-19 02:15N 43°32' E 007°02'0 0.0
2014-Aug-18 18:24N 43°32' E 007°02'2 1.9
2014-Aug-18 17:34N 43°31' E 007°04'0 0.1
2014-Aug-18 16:28N 43°32' E 007°04'0 0.0
2014-Aug-18 15:28N 43°32' E 007°04'0 0.0
2014-Aug-18 14:28N 43°32' E 007°04'0 0.0
2014-Aug-18 13:26N 43°31' E 007°04'  
2014-Aug-12 15:12N 42°17' E 008°33'3 1.5
2014-Aug-12 13:24N 42°20' E 008°34'3913.6
2014-Aug-12 10:33N 42°42' E 007°52'1813.5
2014-Aug-12 09:14N 42°52' E 007°32'1013.8
2014-Aug-12 08:33N 42°58' E 007°21'1413.6
2014-Aug-12 07:33N 43°05' E 007°06'7 6.6
2014-Aug-12 06:33N 43°09' E 006°58'1414.1
2014-Aug-12 05:33N 43°17' E 006°42'3 0.2
2014-Aug-11 14:14N 43°16' E 006°38'1 1.1
2014-Aug-11 13:33N 43°16' E 006°37'0 0.0
2014-Aug-11 12:28N 43°16' E 006°37'0 0.0
2014-Aug-11 11:22N 43°16' E 006°37'  

Dump ship's entire track history